Time;durP1;ratioP1;P1;durP2;ratioP2;P2;SDS_P1;SDS_P2;PMS_P1;PMS_P2;Temp;Humidity;BMP_temperature;BMP_pressure;BME280_temperature;BME280_humidity;BME280_pressure;Samples;Min_cycle;Max_cycle;Signal;HPM_P1;HPM_P2
2022/02/07 00:02:06;;;;;;;10.00;1.88;;;14.80;66.10;;;;;;4188536;28;20072;-59
2022/02/07 00:04:33;;;;;;;6.32;1.90;;;14.70;63.70;;;;;;4176773;28;20484;-59
2022/02/07 00:06:56;;;;;;;10.57;2.13;;;14.70;64.50;;;;;;4176670;28;20102;-60
2022/02/07 00:09:18;;;;;;;11.00;1.65;;;14.70;64.80;;;;;;4190365;28;20060;-60
2022/02/07 00:11:41;;;;;;;8.15;1.55;;;14.60;65.10;;;;;;4193081;28;20048;-60
2022/02/07 00:14:03;;;;;;;5.15;0.90;;;14.60;62.90;;;;;;4191079;28;20060;-60
2022/02/07 00:16:25;;;;;;;2.47;0.65;;;14.60;64.90;;;;;;4192940;28;20107;-60
2022/02/07 00:18:47;;;;;;;1.73;0.60;;;14.60;63.40;;;;;;4190981;28;20435;-60
2022/02/07 00:21:09;;;;;;;4.90;0.57;;;14.50;63.00;;;;;;4192301;28;20055;-60
2022/02/07 00:23:33;;;;;;;4.68;0.80;;;14.50;63.40;;;;;;4192355;28;20045;-59
2022/02/07 00:25:55;;;;;;;2.97;0.90;;;14.50;63.20;;;;;;4191462;28;20053;-60
2022/02/07 00:28:19;;;;;;;5.20;0.82;;;14.50;63.10;;;;;;4176132;28;20068;-59
2022/02/07 00:30:41;;;;;;;7.10;1.17;;;14.40;64.20;;;;;;4177165;28;20491;-60
2022/02/07 00:33:03;;;;;;;6.22;1.88;;;14.40;65.00;;;;;;4176009;28;20053;-60
2022/02/07 00:35:26;;;;;;;8.18;1.60;;;14.40;65.90;;;;;;4177268;28;20073;-59
2022/02/07 00:37:50;;;;;;;8.30;1.60;;;14.30;66.40;;;;;;4176013;28;20075;-60
2022/02/07 00:40:30;;;;;;;6.60;1.65;;;14.30;66.70;;;;;;4175990;28;20045;-59
2022/02/07 00:42:56;;;;;;;10.25;1.90;;;14.30;67.40;;;;;;4174116;28;20106;-61
2022/02/07 00:45:37;;;;;;;8.07;1.73;;;14.30;68.20;;;;;;4175581;28;20045;-60
2022/02/07 00:48:00;;;;;;;11.60;1.85;;;14.30;68.50;;;;;;4174686;28;20045;-61
2022/02/07 00:50:27;;;;;;;9.50;1.40;;;14.30;68.20;;;;;;4189761;28;20113;-60
2022/02/07 00:52:49;;;;;;;9.13;1.42;;;14.30;67.90;;;;;;4190427;28;20469;-60
2022/02/07 00:55:11;;;;;;;9.98;2.05;;;14.30;67.60;;;;;;4190534;28;20487;-60
2022/02/07 00:57:34;;;;;;;13.30;2.20;;;14.30;68.10;;;;;;4191147;28;20131;-59
2022/02/07 00:59:56;;;;;;;10.65;1.90;;;14.30;68.10;;;;;;4184983;28;20052;-61
2022/02/07 01:02:21;;;;;;;11.93;2.00;;;14.30;67.00;;;;;;4174695;28;20056;-60
2022/02/07 01:04:44;;;;;;;5.22;2.13;;;14.30;66.60;;;;;;4173688;28;20056;-59
2022/02/07 01:07:09;;;;;;;9.32;1.95;;;14.30;66.10;;;;;;4169140;28;20543;-60
2022/02/07 01:09:40;;;;;;;13.18;2.40;;;14.30;66.90;;;;;;4158951;28;20045;-60
2022/02/07 01:12:06;;;;;;;15.93;3.13;;;14.30;66.70;;;;;;4157339;28;20084;-60
2022/02/07 01:14:54;;;;;;;15.18;3.33;;;14.20;66.40;;;;;;4159071;28;20050;-60
2022/02/07 01:20:26;;;;;;;14.57;2.28;;;14.20;66.80;;;;;;4180381;28;20045;-61
2022/02/07 01:52:49;;;;;;;13.10;2.38;;;14.00;67.20;;;;;;4178414;28;20473;-59
2022/02/07 01:55:18;;;;;;;11.77;2.42;;;14.00;68.00;;;;;;4189641;28;20051;-60
2022/02/07 01:57:44;;;;;;;10.68;2.70;;;14.00;67.80;;;;;;4173703;28;20053;-60
2022/02/07 02:00:10;;;;;;;16.17;2.72;;;14.00;67.90;;;;;;4173562;28;20071;-59
2022/02/07 02:02:38;;;;;;;12.48;2.45;;;14.00;68.10;;;;;;4175313;28;20048;-58
2022/02/07 02:05:01;;;;;;;12.63;2.70;;;14.00;68.20;;;;;;4175362;28;20052;-59
2022/02/07 02:07:35;;;;;;;10.82;2.97;;;14.00;67.80;;;;;;4173525;28;20136;-60
2022/02/07 02:09:59;;;;;;;8.73;2.83;;;14.00;69.10;;;;;;4176494;28;20051;-61
2022/02/07 02:12:24;;;;;;;16.42;2.58;;;14.00;70.20;;;;;;4175073;28;20049;-61
2022/02/07 02:14:58;;;;;;;11.88;2.65;;;14.10;69.90;;;;;;4178259;28;20048;-59
2022/02/07 02:17:56;;;;;;;13.18;2.95;;;14.20;68.40;;;;;;4176357;28;20131;-59
2022/02/07 02:36:36;;;;;;;10.32;2.28;;;14.40;66.90;;;;;;4192263;28;20051;-58
2022/02/07 02:47:08;;;;;;;13.68;2.67;;;14.40;67.50;;;;;;4176155;28;20044;-59
2022/02/07 02:49:42;;;;;;;18.75;2.83;;;14.40;67.10;;;;;;4177302;28;20560;-58
2022/02/07 02:52:05;;;;;;;15.75;3.25;;;14.30;67.60;;;;;;4175799;28;20103;-58
2022/02/07 02:54:29;;;;;;;13.98;2.38;;;14.30;66.70;;;;;;4177043;28;20053;-59
2022/02/07 02:56:51;;;;;;;11.88;3.08;;;14.30;68.20;;;;;;4176022;28;20067;-61
2022/02/07 02:59:13;;;;;;;16.73;2.45;;;14.30;69.30;;;;;;4169467;28;20778;-60
2022/02/07 03:01:36;;;;;;;15.70;2.78;;;14.40;69.40;;;;;;4161089;28;20565;-60
2022/02/07 03:04:02;;;;;;;17.85;2.83;;;14.50;69.20;;;;;;4160922;28;20148;-61
2022/02/07 03:06:24;;;;;;;12.73;2.40;;;14.50;68.60;;;;;;4161102;28;20049;-60
2022/02/07 03:08:46;;;;;;;10.18;2.55;;;14.60;68.20;;;;;;4187669;28;20044;-60
2022/02/07 03:11:14;;;;;;;12.50;2.50;;;14.60;67.90;;;;;;4187646;28;20477;-60
2022/02/07 03:13:49;;;;;;;9.90;2.00;;;14.60;67.90;;;;;;4175948;28;20053;-59
2022/02/07 03:16:37;;;;;;;;;;;14.70;68.10;;;;;;4177439;28;20076;-59
2022/02/07 03:19:03;;;;;;;12.63;2.30;;;14.60;68.20;;;;;;4182105;28;19927;-61
2022/02/07 03:21:26;;;;;;;9.88;2.15;;;14.70;68.30;;;;;;4192168;28;20063;-60
2022/02/07 03:23:48;;;;;;;14.77;2.97;;;14.70;68.40;;;;;;4193255;28;20062;-60
2022/02/07 03:26:14;;;;;;;13.38;3.00;;;14.60;68.20;;;;;;4193457;28;20098;-60
2022/02/07 03:28:41;;;;;;;13.15;2.72;;;14.70;67.20;;;;;;4191635;28;20080;-60
2022/02/07 03:31:04;;;;;;;15.38;3.55;;;14.60;66.20;;;;;;4189996;28;20434;-60
2022/02/07 03:33:27;;;;;;;12.13;3.08;;;14.60;66.90;;;;;;4180535;28;20490;-60
2022/02/07 03:35:51;;;;;;;11.20;2.50;;;14.60;67.10;;;;;;4193298;28;20052;-59
2022/02/07 03:38:17;;;;;;;12.95;2.60;;;14.60;67.50;;;;;;4191181;28;20052;-58
2022/02/07 03:40:39;;;;;;;16.40;2.58;;;14.60;67.90;;;;;;4186618;28;20134;-60
2022/02/07 03:43:04;;;;;;;13.52;2.65;;;14.60;68.20;;;;;;4175398;28;20098;-59
2022/02/07 03:45:28;;;;;;;12.20;2.38;;;14.70;68.70;;;;;;4175677;28;20063;-59
2022/02/07 03:47:55;;;;;;;12.38;2.25;;;14.70;67.60;;;;;;4183655;28;20052;-60
2022/02/07 03:50:24;;;;;;;13.75;3.30;;;14.80;67.70;;;;;;4191499;28;20052;-59
2022/02/07 03:52:50;;;;;;;15.40;3.03;;;14.90;67.40;;;;;;4191836;28;20435;-60
2022/02/07 03:55:13;;;;;;;16.45;3.10;;;15.00;66.80;;;;;;4191679;28;20164;-59
2022/02/07 03:57:37;;;;;;;10.43;2.47;;;15.10;66.20;;;;;;4191836;28;20044;-59
2022/02/07 04:00:04;;;;;;;12.68;2.65;;;15.10;65.40;;;;;;4192022;28;20048;-59
2022/02/07 04:02:41;;;;;;;16.02;2.95;;;15.10;65.90;;;;;;4190422;28;20696;-59
2022/02/07 04:05:27;;;;;;;14.18;2.58;;;15.10;66.00;;;;;;4175961;28;20041;-59
2022/02/07 04:07:48;;;;;;;17.08;3.72;;;15.10;66.20;;;;;;4174891;28;20059;-59
2022/02/07 04:10:10;;;;;;;12.65;3.22;;;15.10;66.00;;;;;;4175188;28;20090;-59
2022/02/07 04:12:34;;;;;;;14.10;3.33;;;15.00;66.20;;;;;;4175174;28;20457;-60
2022/02/07 04:14:57;;;;;;;19.55;3.10;;;15.00;66.30;;;;;;4178728;28;20126;-59
2022/02/07 04:17:25;;;;;;;16.92;3.40;;;15.10;66.10;;;;;;4174380;28;20102;-59
2022/02/07 04:19:57;;;;;;;13.85;2.45;;;15.10;65.90;;;;;;4174213;28;20052;-58
2022/02/07 04:22:21;;;;;;;3.38;0.98;;;15.10;61.60;;;;;;4188898;28;20049;-59
2022/02/07 04:24:50;;;;;;;6.03;1.05;;;15.10;61.10;;;;;;4174714;28;20103;-57
2022/02/07 04:27:14;;;;;;;2.80;0.82;;;15.00;60.50;;;;;;4175998;28;20076;-59
2022/02/07 04:29:37;;;;;;;2.25;0.82;;;15.00;58.90;;;;;;4175693;28;20056;-58
2022/02/07 04:32:01;;;;;;;5.15;1.27;;;14.90;57.70;;;;;;4178645;28;20044;-60
2022/02/07 04:34:24;;;;;;;7.50;1.55;;;14.80;58.20;;;;;;4175888;28;20056;-59
2022/02/07 04:36:52;;;;;;;11.77;2.83;;;14.70;58.50;;;;;;4175346;28;20405;-60
2022/02/07 04:39:14;;;;;;;8.48;1.88;;;14.60;58.80;;;;;;4176335;28;20080;-61
2022/02/07 04:41:40;;;;;;;10.90;1.85;;;14.60;59.20;;;;;;4188958;28;20044;-60
2022/02/07 04:44:05;;;;;;;6.18;1.15;;;14.50;58.80;;;;;;4190816;28;20049;-59
2022/02/07 04:46:44;;;;;;;4.45;1.00;;;14.50;58.20;;;;;;4189857;28;20132;-60
2022/02/07 04:49:23;;;;;;;11.13;1.42;;;14.50;59.30;;;;;;4185936;28;20072;-60
2022/02/07 04:51:58;;;;;;;6.43;1.38;;;14.50;59.60;;;;;;4190712;28;20048;-60
2022/02/07 04:57:16;;;;;;;5.45;1.20;;;14.50;63.50;;;;;;4154455;28;20075;-59
2022/02/07 04:59:54;;;;;;;7.97;1.38;;;14.60;64.30;;;;;;4173894;28;20036;-59
2022/02/07 05:02:23;;;;;;;3.83;1.10;;;14.60;64.60;;;;;;4174905;28;20099;-59
2022/02/07 05:04:54;;;;;;;6.97;1.00;;;14.70;64.70;;;;;;4160077;28;20046;-59
2022/02/07 05:15:18;;;;;;;17.33;2.65;;;14.80;62.10;;;;;;4190693;28;20519;-58
2022/02/07 05:17:40;;;;;;;12.40;2.60;;;14.80;63.70;;;;;;4178511;28;20064;-59
2022/02/07 05:20:16;;;;;;;9.35;2.08;;;14.80;63.80;;;;;;4174326;28;20052;-58
2022/02/07 05:22:59;;;;;;;14.48;2.28;;;14.80;64.80;;;;;;4175598;28;20048;-59
2022/02/07 05:25:47;;;;;;;12.77;2.20;;;14.80;65.30;;;;;;4169625;28;20130;-59
2022/02/07 05:28:23;;;;;;;15.32;3.60;;;14.90;65.60;;;;;;4177757;28;20447;-60
2022/02/07 05:31:04;;;;;;;21.20;3.38;;;14.80;65.20;;;;;;4191659;28;20606;-59
2022/02/07 05:33:44;;;;;;;10.10;2.33;;;14.80;65.40;;;;;;4190421;28;20696;-59
2022/02/07 05:36:21;;;;;;;17.27;3.30;;;14.80;65.70;;;;;;4173869;28;20743;-58
2022/02/07 05:39:03;;;;;;;14.57;3.63;;;14.90;65.20;;;;;;4157477;28;20722;-59
2022/02/07 05:41:37;;;;;;;13.20;3.35;;;15.10;64.00;;;;;;4173982;28;20048;-60
2022/02/07 05:44:23;;;;;;;9.20;2.70;;;15.20;62.40;;;;;;4175444;28;20072;-58
2022/02/07 05:47:01;;;;;;;15.00;1.83;;;15.30;60.80;;;;;;4176561;28;20132;-60
2022/02/07 05:49:41;;;;;;;9.32;1.75;;;15.30;60.20;;;;;;4185583;28;20052;-60
2022/02/07 05:52:19;;;;;;;6.10;1.40;;;15.30;60.40;;;;;;4178006;28;20107;-59
2022/02/07 05:54:54;;;;;;;10.85;1.83;;;15.20;61.00;;;;;;4187004;28;20420;-60
2022/02/07 05:57:37;;;;;;;7.10;1.77;;;15.20;62.00;;;;;;4194906;28;20534;-60
2022/02/07 06:00:11;;;;;;;9.20;1.63;;;15.20;62.70;;;;;;4178372;28;20056;-60
2022/02/07 06:02:37;;;;;;;7.10;1.75;;;15.20;63.50;;;;;;4179508;28;20162;-59
2022/02/07 06:05:06;;;;;;;9.38;1.90;;;15.20;63.80;;;;;;4163793;28;20044;-59
2022/02/07 06:07:29;;;;;;;15.68;2.78;;;15.20;64.10;;;;;;4176562;28;20141;-60
2022/02/07 06:09:51;;;;;;;12.52;2.25;;;15.20;64.20;;;;;;4177234;28;20094;-60
2022/02/07 06:12:14;;;;;;;14.60;2.58;;;15.20;64.40;;;;;;4177028;28;20041;-60
2022/02/07 06:14:37;;;;;;;18.88;2.75;;;15.10;63.90;;;;;;4176497;28;20111;-59
2022/02/07 06:16:59;;;;;;;14.45;3.33;;;15.10;64.20;;;;;;4177045;28;20056;-58
2022/02/07 06:19:26;;;;;;;20.38;3.33;;;15.10;64.60;;;;;;4175936;28;20045;-59
2022/02/07 06:21:48;;;;;;;20.45;3.97;;;15.00;65.00;;;;;;4177049;28;20045;-59
2022/02/07 06:24:12;;;;;;;18.83;3.30;;;15.00;65.30;;;;;;4176998;28;20099;-59
2022/02/07 06:26:36;;;;;;;25.60;4.22;;;15.10;65.60;;;;;;4176738;28;20060;-59
2022/02/07 06:29:04;;;;;;;18.48;3.97;;;15.20;65.40;;;;;;4176968;28;20044;-59
2022/02/07 06:31:28;;;;;;;16.38;3.75;;;15.40;64.90;;;;;;4176658;28;20114;-60
2022/02/07 06:33:53;;;;;;;28.25;4.65;;;15.50;64.50;;;;;;4177023;28;20516;-60
2022/02/07 06:36:16;;;;;;;22.33;3.60;;;15.50;64.20;;;;;;4177364;28;20045;-60
2022/02/07 06:38:38;;;;;;;16.88;3.22;;;15.60;64.20;;;;;;4176303;28;20057;-60
2022/02/07 06:41:01;;;;;;;11.45;3.30;;;15.60;64.10;;;;;;4176551;28;20045;-59
2022/02/07 06:43:25;;;;;;;14.48;3.00;;;15.60;64.00;;;;;;4176363;28;20049;-59
2022/02/07 06:45:48;;;;;;;19.17;3.58;;;15.60;64.00;;;;;;4176389;28;20424;-57
2022/02/07 06:48:11;;;;;;;18.92;3.55;;;15.60;64.00;;;;;;4176547;28;20055;-59
2022/02/07 06:50:34;;;;;;;16.63;3.20;;;15.60;64.00;;;;;;4184249;28;20052;-59
2022/02/07 06:52:58;;;;;;;22.25;3.72;;;15.50;64.40;;;;;;4176230;28;20048;-60
2022/02/07 06:55:21;;;;;;;20.27;3.50;;;15.50;64.50;;;;;;4176151;28;20063;-60
2022/02/07 06:57:43;;;;;;;20.05;3.63;;;15.60;64.50;;;;;;4179909;28;20045;-60
2022/02/07 07:00:10;;;;;;;20.23;4.10;;;15.60;64.30;;;;;;4192676;28;20082;-60
2022/02/07 07:02:36;;;;;;;15.93;4.28;;;15.70;64.30;;;;;;4180950;28;20082;-62
2022/02/07 07:05:06;;;;;;;19.88;3.92;;;15.70;64.70;;;;;;4192235;28;20041;-62
2022/02/07 07:07:29;;;;;;;15.00;3.20;;;15.70;65.00;;;;;;4188621;28;20048;-59
2022/02/07 07:09:54;;;;;;;25.13;3.85;;;15.70;64.70;;;;;;4176433;28;20279;-59
2022/02/07 07:12:19;;;;;;;19.88;4.10;;;15.70;65.80;;;;;;4176182;28;20052;-59
2022/02/07 07:14:48;;;;;;;20.65;3.78;;;15.70;65.10;;;;;;4160530;28;20122;-59
2022/02/07 07:17:11;;;;;;;21.60;3.78;;;15.70;64.60;;;;;;4175496;28;20075;-59
2022/02/07 07:19:41;;;;;;;24.50;4.82;;;15.90;64.20;;;;;;4177763;28;20156;-59
2022/02/07 07:22:05;;;;;;;17.90;3.47;;;15.90;63.80;;;;;;4167826;28;20048;-59
2022/02/07 07:24:30;;;;;;;16.50;4.00;;;15.90;63.60;;;;;;4158896;28;20132;-60
2022/02/07 07:26:52;;;;;;;28.65;5.47;;;15.90;63.70;;;;;;4158321;28;20061;-59
2022/02/07 07:29:20;;;;;;;28.48;4.45;;;15.90;63.70;;;;;;4158992;28;20049;-59
2022/02/07 07:31:49;;;;;;;12.63;3.30;;;15.80;63.70;;;;;;4159324;28;20185;-59
2022/02/07 07:34:16;;;;;;;21.42;4.70;;;15.80;64.00;;;;;;4159181;28;20061;-59
2022/02/07 07:36:41;;;;;;;20.38;3.63;;;15.70;64.30;;;;;;4174994;28;20118;-58
2022/02/07 07:39:05;;;;;;;17.92;3.30;;;15.70;64.40;;;;;;4175404;28;20045;-58
2022/02/07 07:41:28;;;;;;;24.85;4.35;;;15.60;64.70;;;;;;4185402;28;20866;-58
2022/02/07 07:43:57;;;;;;;18.65;4.13;;;15.50;64.90;;;;;;4190768;28;20053;-59
2022/02/07 07:46:56;;;;;;;21.83;4.28;;;15.50;65.20;;;;;;4158693;28;20060;-58
2022/02/07 07:49:39;;;;;;;26.30;4.95;;;15.40;65.50;;;;;;4191680;28;20045;-58
2022/02/07 07:52:45;;;;;;;18.50;4.40;;;15.40;66.60;;;;;;4188795;28;20571;-59
2022/02/07 08:03:42;;;;;;;27.35;5.18;;;15.30;66.30;;;;;;4174375;28;20301;-59
2022/02/07 08:06:11;;;;;;;27.25;4.47;;;15.30;66.30;;;;;;4174971;28;20123;-58
2022/02/07 08:08:43;;;;;;;24.98;4.32;;;15.30;66.40;;;;;;4158382;28;20132;-59
2022/02/07 08:11:08;;;;;;;;;;;15.30;66.50;;;;;;4179565;28;20052;-60
2022/02/07 08:13:34;;;;;;;26.10;4.40;;;15.30;66.30;;;;;;4182950;28;19931;-60
2022/02/07 08:16:06;;;;;;;30.23;5.43;;;15.30;66.30;;;;;;4181101;28;20681;-59
2022/02/07 08:18:28;;;;;;;21.67;4.32;;;15.30;66.20;;;;;;4180238;28;20049;-58
2022/02/07 08:20:50;;;;;;;22.77;5.28;;;15.30;66.10;;;;;;4181463;28;20072;-59
2022/02/07 08:23:12;;;;;;;32.08;4.97;;;15.40;66.20;;;;;;4175500;28;20048;-60
2022/02/07 08:25:36;;;;;;;25.77;4.22;;;15.30;66.10;;;;;;4177274;28;20492;-59
2022/02/07 08:27:58;;;;;;;22.42;4.38;;;15.30;66.30;;;;;;4173909;28;20044;-59
2022/02/07 08:30:21;;;;;;;21.17;5.00;;;15.30;66.30;;;;;;4188324;28;20044;-59
2022/02/07 08:32:43;;;;;;;24.10;4.22;;;15.30;66.50;;;;;;4157582;28;20042;-59
2022/02/07 08:35:08;;;;;;;22.83;5.18;;;15.30;66.50;;;;;;4157483;28;20067;-60
2022/02/07 08:37:30;;;;;;;29.65;5.82;;;15.30;66.50;;;;;;4157756;28;20053;-59
2022/02/07 08:39:52;;;;;;;29.17;4.78;;;15.30;66.60;;;;;;4161615;28;20053;-60
2022/02/07 08:42:16;;;;;;;32.95;5.20;;;15.30;66.60;;;;;;4179304;28;20456;-59
2022/02/07 08:44:39;;;;;;;24.75;4.70;;;15.30;66.60;;;;;;4187829;28;20056;-59
2022/02/07 08:47:01;;;;;;;28.58;4.43;;;15.30;66.40;;;;;;4174625;28;20462;-60
2022/02/07 08:49:24;;;;;;;23.27;4.20;;;15.30;66.30;;;;;;4181904;28;20055;-59
2022/02/07 08:51:47;;;;;;;16.67;3.72;;;15.30;66.40;;;;;;4183396;28;20060;-60
2022/02/07 08:54:09;;;;;;;32.35;6.05;;;15.30;66.30;;;;;;4177754;28;20067;-59
2022/02/07 08:56:39;;;;;;;24.30;5.25;;;15.30;66.40;;;;;;4173505;28;20526;-60
2022/02/07 08:59:03;;;;;;;31.08;4.35;;;15.20;66.30;;;;;;4173434;28;20053;-59
2022/02/07 09:01:29;;;;;;;21.02;3.92;;;15.20;66.60;;;;;;4180631;28;20053;-60
2022/02/07 09:04:30;;;;;;;22.20;4.88;;;15.20;66.70;;;;;;4173491;28;20139;-59
2022/02/07 09:07:01;;;;;;;31.52;4.65;;;15.10;66.80;;;;;;4173180;28;20128;-59
2022/02/07 09:09:23;;;;;;;25.13;4.80;;;15.10;67.00;;;;;;4176654;28;20059;-60
2022/02/07 09:11:46;;;;;;;24.02;4.40;;;15.00;67.10;;;;;;4178113;28;20083;-60
2022/02/07 09:14:12;;;;;;;28.13;5.53;;;15.00;67.20;;;;;;4184303;28;20051;-59
2022/02/07 09:16:35;;;;;;;27.02;4.63;;;15.00;67.30;;;;;;4179516;28;20047;-58
2022/02/07 09:18:58;;;;;;;21.92;4.55;;;15.00;67.50;;;;;;4189190;28;20467;-58
2022/02/07 09:21:21;;;;;;;27.17;3.97;;;15.00;67.50;;;;;;4179254;28;20045;-61
2022/02/07 09:23:45;;;;;;;25.50;5.38;;;15.00;67.60;;;;;;4187744;28;20134;-60
2022/02/07 09:26:08;;;;;;;20.77;2.63;;;14.90;67.60;;;;;;4192606;28;20114;-61
2022/02/07 09:28:32;;;;;;;16.85;3.83;;;14.90;67.80;;;;;;4182121;28;20061;-58
2022/02/07 09:30:55;;;;;;;27.92;4.35;;;14.80;67.90;;;;;;4177755;28;20464;-59
2022/02/07 09:33:22;;;;;;;30.23;4.35;;;14.80;67.70;;;;;;4189329;28;20052;-59
2022/02/07 09:35:45;;;;;;;22.20;3.95;;;14.80;67.50;;;;;;4189994;28;20530;-59
2022/02/07 09:38:07;;;;;;;17.55;4.30;;;14.80;67.70;;;;;;4179549;28;20056;-59
2022/02/07 09:40:30;;;;;;;26.55;4.90;;;14.80;68.70;;;;;;4187965;28;20049;-60
2022/02/07 09:42:57;;;;;;;16.83;3.15;;;14.70;67.30;;;;;;4183784;28;20106;-59
2022/02/07 09:45:29;;;;;;;19.00;2.97;;;14.70;67.70;;;;;;4184590;28;20514;-61
2022/02/07 09:47:53;;;;;;;27.98;5.10;;;14.70;67.90;;;;;;4192717;28;20056;-60
2022/02/07 09:50:15;;;;;;;26.20;4.88;;;14.70;67.70;;;;;;4177855;28;20124;-60
2022/02/07 09:52:38;;;;;;;27.25;4.50;;;14.60;67.70;;;;;;4192088;28;20060;-61
2022/02/07 09:55:01;;;;;;;23.80;4.18;;;14.60;67.30;;;;;;4186129;28;20060;-61
2022/02/07 09:57:24;;;;;;;20.27;3.75;;;14.60;67.70;;;;;;4175099;28;20059;-61
2022/02/07 09:59:49;;;;;;;27.40;4.35;;;14.70;68.70;;;;;;4183615;28;20086;-61
2022/02/07 10:02:21;;;;;;;23.85;3.70;;;14.70;69.10;;;;;;4192534;28;20110;-61
2022/02/07 10:04:53;;;;;;;25.75;5.22;;;14.80;68.00;;;;;;4175992;28;20127;-61
2022/02/07 10:07:22;;;;;;;21.40;4.75;;;14.90;67.50;;;;;;4175964;28;20063;-61
2022/02/07 10:09:59;;;;;;;23.70;4.00;;;15.00;67.20;;;;;;4176915;28;20057;-61
2022/02/07 10:17:55;;;;;;;24.25;5.43;;;15.40;65.90;;;;;;4192044;28;20060;-61
2022/02/07 10:39:31;;;;;;;17.90;3.92;;;16.00;63.70;;;;;;4158407;28;20465;-60
2022/02/07 10:42:18;;;;;;;17.75;3.30;;;16.10;63.20;;;;;;4187361;28;20053;-59
2022/02/07 10:44:45;;;;;;;17.73;3.38;;;16.20;62.60;;;;;;4178716;28;20072;-59
2022/02/07 10:47:12;;;;;;;17.95;3.13;;;16.30;62.20;;;;;;4187335;28;20056;-59
2022/02/07 10:49:35;;;;;;;12.88;2.88;;;16.30;61.90;;;;;;4188722;28;20045;-60
2022/02/07 10:52:01;;;;;;;11.25;2.88;;;16.30;62.00;;;;;;4174024;28;20049;-61
2022/02/07 10:54:23;;;;;;;18.85;3.45;;;16.30;62.00;;;;;;4180427;28;20129;-61
2022/02/07 10:56:45;;;;;;;16.63;3.53;;;16.30;61.80;;;;;;4175459;28;20045;-61
2022/02/07 10:59:10;;;;;;;15.10;3.45;;;16.40;61.70;;;;;;4175242;28;20056;-60
2022/02/07 11:01:48;;;;;;;16.25;3.05;;;16.40;61.60;;;;;;4185762;28;21035;-61
2022/02/07 11:04:14;;;;;;;16.95;3.28;;;16.40;61.60;;;;;;4190115;28;20059;-60
2022/02/07 11:06:39;;;;;;;17.23;4.13;;;16.40;61.60;;;;;;4183935;28;20528;-60
2022/02/07 11:09:18;;;;;;;14.00;3.08;;;16.40;61.60;;;;;;4179685;28;20102;-60
2022/02/07 11:14:39;;;;;;;14.48;2.50;;;16.30;61.40;;;;;;4181516;28;20079;-60
2022/02/07 11:17:19;;;;;;;16.80;3.25;;;16.30;61.90;;;;;;4183589;28;20484;-60
2022/02/07 11:19:50;;;;;;;18.70;4.13;;;16.40;61.90;;;;;;4175212;28;20788;-59
2022/02/07 11:22:31;;;;;;;20.25;3.97;;;16.40;61.80;;;;;;4190015;28;20048;-60
2022/02/07 11:25:09;;;;;;;15.50;3.58;;;16.50;61.40;;;;;;4184038;28;20094;-60
2022/02/07 11:27:39;;;;;;;19.10;4.20;;;16.60;61.20;;;;;;4190331;28;20060;-60
2022/02/07 11:30:07;;;;;;;22.90;4.80;;;16.60;61.10;;;;;;4174268;28;20049;-60
2022/02/07 11:32:54;;;;;;;19.80;5.10;;;16.60;61.90;;;;;;4187481;28;20052;-60
2022/02/07 11:35:18;;;;;;;20.20;5.63;;;16.60;61.50;;;;;;4174606;28;20044;-60
2022/02/07 11:37:41;;;;;;;16.48;6.05;;;16.50;61.40;;;;;;4178752;28;20580;-60
2022/02/07 11:40:25;;;;;;;18.17;6.03;;;16.50;61.70;;;;;;4175046;28;20076;-60
2022/02/07 11:43:07;;;;;;;20.95;5.25;;;16.40;62.10;;;;;;4175188;28;20053;-60
2022/02/07 11:45:29;;;;;;;17.52;7.18;;;16.30;62.10;;;;;;4177461;28;20105;-60
2022/02/07 11:47:58;;;;;;;22.85;6.82;;;16.30;63.10;;;;;;4182074;28;20052;-61
2022/02/07 11:50:22;;;;;;;12.23;4.05;;;16.30;62.40;;;;;;4179690;28;20082;-60
2022/02/07 11:52:48;;;;;;;22.83;7.30;;;16.20;62.50;;;;;;4178659;28;20056;-60
2022/02/07 11:55:15;;;;;;;20.13;5.53;;;16.20;62.70;;;;;;4177974;28;20049;-60
2022/02/07 11:57:39;;;;;;;18.48;7.43;;;16.10;62.80;;;;;;4184871;28;20447;-61
2022/02/07 12:00:11;;;;;;;19.48;5.47;;;16.00;62.90;;;;;;4178577;28;20044;-62
2022/02/07 12:02:38;;;;;;;19.45;4.35;;;15.90;62.90;;;;;;4180385;28;20380;-63
2022/02/07 12:05:02;;;;;;;28.10;5.90;;;15.90;62.90;;;;;;4172772;28;20045;-61
2022/02/07 12:07:36;;;;;;;21.80;6.18;;;15.80;63.40;;;;;;4183951;28;20480;-62
2022/02/07 12:10:19;;;;;;;23.73;6.30;;;15.80;63.80;;;;;;4173527;28;20061;-62
2022/02/07 12:12:49;;;;;;;23.77;8.10;;;15.70;64.10;;;;;;4182069;28;20052;-62
2022/02/07 12:15:20;;;;;;;25.38;7.38;;;15.60;64.30;;;;;;4157327;28;20131;-62
2022/02/07 12:17:44;;;;;;;19.15;6.65;;;15.60;64.60;;;;;;4189800;28;20445;-61
2022/02/07 12:20:08;;;;;;;15.60;5.05;;;15.50;64.90;;;;;;4187251;28;20048;-61
2022/02/07 12:22:47;;;;;;;19.17;5.60;;;15.50;64.50;;;;;;4174492;28;20126;-61
2022/02/07 12:25:20;;;;;;;17.83;5.72;;;15.50;64.90;;;;;;4171332;28;20075;-61
2022/02/07 12:27:44;;;;;;;20.80;7.10;;;15.40;65.10;;;;;;4174324;28;20048;-61
2022/02/07 12:30:29;;;;;;;20.40;6.15;;;15.40;65.40;;;;;;4180237;28;20139;-61
2022/02/07 12:32:52;;;;;;;20.58;6.05;;;15.30;65.40;;;;;;4174947;28;20129;-61
2022/02/07 12:35:25;;;;;;;22.00;4.43;;;15.30;65.60;;;;;;4175762;28;20080;-61
2022/02/07 12:37:49;;;;;;;19.05;5.35;;;15.20;65.80;;;;;;4189414;28;20052;-62
2022/02/07 12:40:12;;;;;;;24.02;6.53;;;15.20;65.30;;;;;;4184172;28;20060;-61
2022/02/07 12:42:35;;;;;;;17.15;5.55;;;15.20;65.50;;;;;;4181509;28;20094;-60
2022/02/07 12:44:59;;;;;;;24.13;5.40;;;15.20;66.40;;;;;;4183514;28;20403;-60
2022/02/07 12:47:26;;;;;;;20.13;4.30;;;15.10;65.50;;;;;;4176159;28;20496;-61
2022/02/07 12:49:50;;;;;;;23.17;7.45;;;15.10;64.00;;;;;;4179159;28;20047;-60
2022/02/07 12:52:13;;;;;;;9.27;3.33;;;15.10;65.00;;;;;;4176421;28;20057;-60
2022/02/07 12:54:37;;;;;;;13.43;3.40;;;15.00;64.80;;;;;;4175349;28;20056;-61
2022/02/07 12:57:00;;;;;;;15.55;3.63;;;15.00;66.20;;;;;;4172792;28;20044;-61
2022/02/07 12:59:22;;;;;;;12.85;3.10;;;15.00;67.20;;;;;;4176852;28;20056;-60
2022/02/07 13:01:46;;;;;;;15.77;3.92;;;15.10;66.80;;;;;;4176803;28;20052;-60
2022/02/07 13:04:15;;;;;;;21.85;5.93;;;15.10;67.00;;;;;;4172669;28;20072;-61
2022/02/07 13:06:40;;;;;;;16.92;5.35;;;15.20;66.80;;;;;;4175670;28;20052;-60
2022/02/07 13:09:22;;;;;;;18.52;4.32;;;15.30;66.80;;;;;;4173772;28;20044;-61
2022/02/07 13:11:48;;;;;;;20.30;4.95;;;15.30;66.50;;;;;;4173754;28;20052;-61
2022/02/07 13:14:10;;;;;;;13.00;3.85;;;15.30;66.10;;;;;;4181791;28;20471;-61
2022/02/07 13:16:33;;;;;;;19.65;4.63;;;15.30;65.90;;;;;;4181392;28;20145;-61
2022/02/07 13:18:55;;;;;;;17.55;3.55;;;15.30;65.90;;;;;;4183330;28;20048;-61
2022/02/07 13:21:19;;;;;;;19.30;3.75;;;15.30;65.90;;;;;;4177328;28;20400;-60
2022/02/07 13:23:42;;;;;;;20.10;3.40;;;15.30;66.10;;;;;;4172299;28;20053;-60
2022/02/07 13:26:05;;;;;;;17.27;3.50;;;15.30;66.20;;;;;;4170248;28;20049;-60
2022/02/07 13:28:31;;;;;;;13.95;4.15;;;15.30;66.30;;;;;;4163354;28;20053;-61
2022/02/07 13:30:54;;;;;;;14.60;3.13;;;15.20;66.40;;;;;;4166464;28;20048;-61
2022/02/07 13:33:17;;;;;;;15.23;4.20;;;15.20;66.60;;;;;;4158196;28;20080;-61
2022/02/07 13:35:44;;;;;;;17.08;3.67;;;15.20;66.40;;;;;;4189026;28;20534;-60
2022/02/07 13:38:08;;;;;;;19.63;4.53;;;15.10;66.50;;;;;;4173300;28;20049;-60
2022/02/07 13:40:40;;;;;;;19.33;3.85;;;15.20;66.60;;;;;;4189037;28;20512;-60
2022/02/07 13:43:02;;;;;;;18.17;4.60;;;15.10;66.80;;;;;;4174647;28;20048;-60
2022/02/07 13:45:29;;;;;;;15.25;3.72;;;15.10;66.80;;;;;;4175375;28;20504;-61
2022/02/07 13:47:54;;;;;;;17.85;4.13;;;15.10;66.80;;;;;;4177214;28;20057;-61
2022/02/07 13:50:18;;;;;;;19.33;3.50;;;15.00;66.90;;;;;;4183632;28;20086;-60
2022/02/07 13:52:43;;;;;;;14.43;3.33;;;15.00;66.80;;;;;;4173169;28;20535;-61
2022/02/07 13:55:16;;;;;;;18.38;3.70;;;15.00;66.80;;;;;;4186402;28;20056;-61
2022/02/07 13:57:49;;;;;;;7.50;3.35;;;15.00;66.80;;;;;;4173142;28;20115;-60
2022/02/07 14:00:15;;;;;;;13.90;3.03;;;14.90;66.40;;;;;;4178714;28;20438;-62
2022/02/07 14:02:38;;;;;;;18.05;3.60;;;14.90;66.40;;;;;;4182266;28;20045;-60
2022/02/07 14:05:00;;;;;;;13.00;3.08;;;14.90;66.80;;;;;;4173147;28;20135;-60
2022/02/07 14:07:27;;;;;;;15.40;3.38;;;14.80;66.20;;;;;;4173267;28;20140;-60
2022/02/07 14:09:50;;;;;;;13.27;3.38;;;14.80;67.00;;;;;;4161086;28;20128;-60
2022/02/07 14:12:14;;;;;;;15.35;3.42;;;14.80;66.00;;;;;;4159657;28;20550;-58
2022/02/07 14:14:38;;;;;;;14.63;3.67;;;14.80;66.50;;;;;;4163077;28;20469;-61
2022/02/07 14:17:01;;;;;;;11.82;3.38;;;14.70;65.60;;;;;;4176079;28;20076;-61
2022/02/07 14:19:42;;;;;;;11.88;3.00;;;14.70;66.20;;;;;;4178410;28;20211;-62
2022/02/07 14:22:05;;;;;;;12.23;2.42;;;14.70;66.60;;;;;;4184628;28;20049;-61
2022/02/07 14:24:28;;;;;;;17.00;3.33;;;14.70;67.10;;;;;;4176184;28;20054;-61